sensor_id;sensor_type;location;lat;lon;timestamp;P1;durP1;ratioP1;P2;durP2;ratioP2
32214;SDS011;18708;53.124;23.190;2023-04-08T00:01:04;45.75;;;25.50;;
32214;SDS011;18708;53.124;23.190;2023-04-08T00:03:32;42.67;;;25.05;;
32214;SDS011;18708;53.124;23.190;2023-04-08T00:05:58;43.85;;;21.52;;
32214;SDS011;18708;53.124;23.190;2023-04-08T00:08:26;53.55;;;28.13;;
32214;SDS011;18708;53.124;23.190;2023-04-08T00:10:52;81.95;;;32.70;;
32214;SDS011;18708;53.124;23.190;2023-04-08T00:13:18;72.32;;;31.38;;
32214;SDS011;18708;53.124;23.190;2023-04-08T00:15:43;77.65;;;34.55;;
32214;SDS011;18708;53.124;23.190;2023-04-08T00:18:09;68.78;;;29.33;;
32214;SDS011;18708;53.124;23.190;2023-04-08T00:20:35;60.10;;;28.55;;
32214;SDS011;18708;53.124;23.190;2023-04-08T00:23:01;84.93;;;39.42;;
32214;SDS011;18708;53.124;23.190;2023-04-08T00:25:26;90.88;;;44.85;;
32214;SDS011;18708;53.124;23.190;2023-04-08T00:27:52;78.60;;;38.35;;
32214;SDS011;18708;53.124;23.190;2023-04-08T00:30:18;56.97;;;28.67;;
32214;SDS011;18708;53.124;23.190;2023-04-08T00:32:44;65.20;;;32.78;;
32214;SDS011;18708;53.124;23.190;2023-04-08T00:35:09;60.70;;;33.22;;
32214;SDS011;18708;53.124;23.190;2023-04-08T00:37:36;52.78;;;26.55;;
32214;SDS011;18708;53.124;23.190;2023-04-08T00:40:02;53.42;;;29.02;;
32214;SDS011;18708;53.124;23.190;2023-04-08T00:42:29;41.85;;;22.88;;
32214;SDS011;18708;53.124;23.190;2023-04-08T00:44:55;54.65;;;28.00;;
32214;SDS011;18708;53.124;23.190;2023-04-08T00:47:20;37.00;;;20.33;;
32214;SDS011;18708;53.124;23.190;2023-04-08T00:49:46;41.38;;;23.67;;
32214;SDS011;18708;53.124;23.190;2023-04-08T00:52:12;45.55;;;24.60;;
32214;SDS011;18708;53.124;23.190;2023-04-08T00:54:38;45.55;;;24.15;;
32214;SDS011;18708;53.124;23.190;2023-04-08T00:57:04;45.75;;;25.90;;
32214;SDS011;18708;53.124;23.190;2023-04-08T00:59:30;39.80;;;22.27;;
32214;SDS011;18708;53.124;23.190;2023-04-08T01:04:34;36.65;;;20.83;;
32214;SDS011;18708;53.124;23.190;2023-04-08T01:07:17;43.38;;;23.13;;
32214;SDS011;18708;53.124;23.190;2023-04-08T01:09:59;37.90;;;20.98;;
32214;SDS011;18708;53.124;23.190;2023-04-08T01:12:32;42.53;;;24.13;;
32214;SDS011;18708;53.124;23.190;2023-04-08T01:15:04;50.00;;;25.70;;
32214;SDS011;18708;53.124;23.190;2023-04-08T01:17:31;34.72;;;19.25;;
32214;SDS011;18708;53.124;23.190;2023-04-08T01:19:59;39.35;;;22.08;;
32214;SDS011;18708;53.124;23.190;2023-04-08T01:22:28;39.08;;;21.77;;
32214;SDS011;18708;53.124;23.190;2023-04-08T01:25:16;26.17;;;16.27;;
32214;SDS011;18708;53.124;23.190;2023-04-08T01:27:45;39.15;;;21.10;;
32214;SDS011;18708;53.124;23.190;2023-04-08T01:30:13;35.97;;;18.90;;
32214;SDS011;18708;53.124;23.190;2023-04-08T01:32:42;39.83;;;21.50;;
32214;SDS011;18708;53.124;23.190;2023-04-08T01:35:10;37.95;;;22.17;;
32214;SDS011;18708;53.124;23.190;2023-04-08T01:37:37;51.35;;;27.08;;
32214;SDS011;18708;53.124;23.190;2023-04-08T01:40:05;50.15;;;27.98;;
32214;SDS011;18708;53.124;23.190;2023-04-08T01:42:33;59.30;;;30.67;;
32214;SDS011;18708;53.124;23.190;2023-04-08T01:45:00;44.42;;;23.70;;
32214;SDS011;18708;53.124;23.190;2023-04-08T01:47:27;56.40;;;31.20;;
32214;SDS011;18708;53.124;23.190;2023-04-08T01:49:54;47.88;;;26.80;;
32214;SDS011;18708;53.124;23.190;2023-04-08T01:52:21;47.55;;;26.75;;
32214;SDS011;18708;53.124;23.190;2023-04-08T01:54:49;51.55;;;27.70;;
32214;SDS011;18708;53.124;23.190;2023-04-08T01:57:20;42.03;;;23.63;;
32214;SDS011;18708;53.124;23.190;2023-04-08T01:59:51;50.00;;;27.13;;
32214;SDS011;18708;53.124;23.190;2023-04-08T02:02:20;53.85;;;27.48;;
32214;SDS011;18708;53.124;23.190;2023-04-08T02:04:48;53.38;;;28.73;;
32214;SDS011;18708;53.124;23.190;2023-04-08T02:07:14;46.88;;;25.42;;
32214;SDS011;18708;53.124;23.190;2023-04-08T02:09:40;50.90;;;25.95;;
32214;SDS011;18708;53.124;23.190;2023-04-08T02:12:06;46.58;;;22.88;;
32214;SDS011;18708;53.124;23.190;2023-04-08T02:14:31;57.97;;;29.90;;
32214;SDS011;18708;53.124;23.190;2023-04-08T02:17:02;78.20;;;34.40;;
32214;SDS011;18708;53.124;23.190;2023-04-08T02:22:16;77.05;;;37.28;;
32214;SDS011;18708;53.124;23.190;2023-04-08T02:24:55;68.28;;;32.88;;
32214;SDS011;18708;53.124;23.190;2023-04-08T02:27:23;45.63;;;25.40;;
32214;SDS011;18708;53.124;23.190;2023-04-08T02:29:50;53.53;;;28.05;;
32214;SDS011;18708;53.124;23.190;2023-04-08T02:32:20;43.58;;;23.25;;
32214;SDS011;18708;53.124;23.190;2023-04-08T02:34:47;55.10;;;28.70;;
32214;SDS011;18708;53.124;23.190;2023-04-08T02:37:14;58.58;;;30.65;;
32214;SDS011;18708;53.124;23.190;2023-04-08T02:39:39;54.08;;;27.25;;
32214;SDS011;18708;53.124;23.190;2023-04-08T02:42:05;43.75;;;24.00;;
32214;SDS011;18708;53.124;23.190;2023-04-08T02:44:31;57.60;;;30.10;;
32214;SDS011;18708;53.124;23.190;2023-04-08T02:46:57;49.38;;;25.95;;
32214;SDS011;18708;53.124;23.190;2023-04-08T02:49:22;49.05;;;26.20;;
32214;SDS011;18708;53.124;23.190;2023-04-08T02:51:48;62.53;;;32.78;;
32214;SDS011;18708;53.124;23.190;2023-04-08T02:54:13;73.28;;;34.67;;
32214;SDS011;18708;53.124;23.190;2023-04-08T02:56:39;60.92;;;30.80;;
32214;SDS011;18708;53.124;23.190;2023-04-08T02:59:05;67.45;;;32.30;;
32214;SDS011;18708;53.124;23.190;2023-04-08T03:01:31;54.25;;;28.35;;
32214;SDS011;18708;53.124;23.190;2023-04-08T03:03:56;45.47;;;24.80;;
32214;SDS011;18708;53.124;23.190;2023-04-08T03:06:22;47.33;;;24.70;;
32214;SDS011;18708;53.124;23.190;2023-04-08T03:08:48;49.15;;;24.95;;
32214;SDS011;18708;53.124;23.190;2023-04-08T03:11:13;45.08;;;22.95;;
32214;SDS011;18708;53.124;23.190;2023-04-08T03:13:39;41.53;;;21.80;;
32214;SDS011;18708;53.124;23.190;2023-04-08T03:16:05;36.67;;;19.60;;
32214;SDS011;18708;53.124;23.190;2023-04-08T03:18:31;60.03;;;28.60;;
32214;SDS011;18708;53.124;23.190;2023-04-08T03:20:56;50.58;;;27.13;;
32214;SDS011;18708;53.124;23.190;2023-04-08T03:23:22;43.17;;;21.55;;
32214;SDS011;18708;53.124;23.190;2023-04-08T03:25:48;54.35;;;28.38;;
32214;SDS011;18708;53.124;23.190;2023-04-08T03:28:13;40.50;;;20.75;;
32214;SDS011;18708;53.124;23.190;2023-04-08T03:30:39;42.13;;;21.63;;
32214;SDS011;18708;53.124;23.190;2023-04-08T03:33:05;45.45;;;23.27;;
32214;SDS011;18708;53.124;23.190;2023-04-08T03:35:32;50.85;;;26.00;;
32214;SDS011;18708;53.124;23.190;2023-04-08T03:37:58;52.28;;;25.20;;
32214;SDS011;18708;53.124;23.190;2023-04-08T03:40:23;48.10;;;25.23;;
32214;SDS011;18708;53.124;23.190;2023-04-08T03:42:49;59.28;;;29.55;;
32214;SDS011;18708;53.124;23.190;2023-04-08T03:45:15;50.03;;;25.55;;
32214;SDS011;18708;53.124;23.190;2023-04-08T03:47:40;38.15;;;21.77;;
32214;SDS011;18708;53.124;23.190;2023-04-08T03:50:06;50.35;;;26.13;;
32214;SDS011;18708;53.124;23.190;2023-04-08T03:52:32;58.50;;;28.48;;
32214;SDS011;18708;53.124;23.190;2023-04-08T03:54:58;61.80;;;29.02;;
32214;SDS011;18708;53.124;23.190;2023-04-08T03:57:23;69.25;;;33.53;;
32214;SDS011;18708;53.124;23.190;2023-04-08T03:59:49;80.43;;;36.55;;
32214;SDS011;18708;53.124;23.190;2023-04-08T04:02:15;76.25;;;35.17;;
32214;SDS011;18708;53.124;23.190;2023-04-08T04:04:40;86.28;;;41.70;;
32214;SDS011;18708;53.124;23.190;2023-04-08T04:07:06;94.28;;;45.35;;
32214;SDS011;18708;53.124;23.190;2023-04-08T04:09:31;129.20;;;57.10;;
32214;SDS011;18708;53.124;23.190;2023-04-08T04:11:57;135.40;;;60.33;;
32214;SDS011;18708;53.124;23.190;2023-04-08T04:14:23;104.85;;;47.47;;
32214;SDS011;18708;53.124;23.190;2023-04-08T04:16:48;101.38;;;49.53;;
32214;SDS011;18708;53.124;23.190;2023-04-08T04:19:14;102.35;;;46.78;;
32214;SDS011;18708;53.124;23.190;2023-04-08T04:21:41;120.53;;;53.63;;
32214;SDS011;18708;53.124;23.190;2023-04-08T04:24:07;89.18;;;40.85;;
32214;SDS011;18708;53.124;23.190;2023-04-08T04:26:33;63.42;;;30.50;;
32214;SDS011;18708;53.124;23.190;2023-04-08T04:28:58;70.68;;;35.83;;
32214;SDS011;18708;53.124;23.190;2023-04-08T04:31:24;90.45;;;41.03;;
32214;SDS011;18708;53.124;23.190;2023-04-08T04:33:53;58.80;;;30.48;;
32214;SDS011;18708;53.124;23.190;2023-04-08T04:36:19;73.43;;;36.13;;
32214;SDS011;18708;53.124;23.190;2023-04-08T04:38:45;77.78;;;35.92;;
32214;SDS011;18708;53.124;23.190;2023-04-08T04:41:11;46.42;;;25.77;;
32214;SDS011;18708;53.124;23.190;2023-04-08T04:43:36;58.75;;;31.77;;
32214;SDS011;18708;53.124;23.190;2023-04-08T04:46:02;112.38;;;56.88;;
32214;SDS011;18708;53.124;23.190;2023-04-08T04:48:31;72.82;;;40.10;;
32214;SDS011;18708;53.124;23.190;2023-04-08T04:50:57;95.57;;;52.25;;
32214;SDS011;18708;53.124;23.190;2023-04-08T04:53:25;57.20;;;33.10;;
32214;SDS011;18708;53.124;23.190;2023-04-08T04:55:50;54.78;;;30.95;;
32214;SDS011;18708;53.124;23.190;2023-04-08T04:58:16;109.38;;;51.42;;
32214;SDS011;18708;53.124;23.190;2023-04-08T05:00:43;92.30;;;43.42;;
32214;SDS011;18708;53.124;23.190;2023-04-08T05:03:09;73.40;;;36.78;;
32214;SDS011;18708;53.124;23.190;2023-04-08T05:05:35;71.55;;;37.38;;
32214;SDS011;18708;53.124;23.190;2023-04-08T05:08:00;136.18;;;69.10;;
32214;SDS011;18708;53.124;23.190;2023-04-08T05:10:26;157.80;;;81.30;;
32214;SDS011;18708;53.124;23.190;2023-04-08T05:12:52;184.65;;;95.95;;
32214;SDS011;18708;53.124;23.190;2023-04-08T05:15:17;168.30;;;88.85;;
32214;SDS011;18708;53.124;23.190;2023-04-08T05:17:43;95.53;;;50.58;;
32214;SDS011;18708;53.124;23.190;2023-04-08T05:20:09;71.07;;;40.05;;
32214;SDS011;18708;53.124;23.190;2023-04-08T05:22:35;69.68;;;36.90;;
32214;SDS011;18708;53.124;23.190;2023-04-08T05:25:00;72.63;;;38.83;;
32214;SDS011;18708;53.124;23.190;2023-04-08T05:27:26;71.68;;;35.58;;
32214;SDS011;18708;53.124;23.190;2023-04-08T05:29:52;71.22;;;36.00;;
32214;SDS011;18708;53.124;23.190;2023-04-08T05:32:20;61.05;;;32.80;;
32214;SDS011;18708;53.124;23.190;2023-04-08T05:34:46;53.15;;;30.42;;
32214;SDS011;18708;53.124;23.190;2023-04-08T05:37:11;51.65;;;28.38;;
32214;SDS011;18708;53.124;23.190;2023-04-08T05:39:37;52.28;;;29.52;;
32214;SDS011;18708;53.124;23.190;2023-04-08T05:42:03;58.88;;;34.47;;
32214;SDS011;18708;53.124;23.190;2023-04-08T05:44:28;63.15;;;37.22;;
32214;SDS011;18708;53.124;23.190;2023-04-08T05:46:54;61.35;;;33.88;;
32214;SDS011;18708;53.124;23.190;2023-04-08T05:49:21;60.45;;;33.67;;
32214;SDS011;18708;53.124;23.190;2023-04-08T05:51:47;65.28;;;36.33;;
32214;SDS011;18708;53.124;23.190;2023-04-08T05:54:13;68.85;;;36.65;;
32214;SDS011;18708;53.124;23.190;2023-04-08T05:56:38;65.63;;;39.28;;
32214;SDS011;18708;53.124;23.190;2023-04-08T05:59:04;54.90;;;34.13;;
32214;SDS011;18708;53.124;23.190;2023-04-08T06:01:30;57.58;;;32.10;;
32214;SDS011;18708;53.124;23.190;2023-04-08T06:03:56;74.03;;;37.20;;
32214;SDS011;18708;53.124;23.190;2023-04-08T06:06:22;80.15;;;38.75;;
32214;SDS011;18708;53.124;23.190;2023-04-08T06:08:49;79.22;;;38.40;;
32214;SDS011;18708;53.124;23.190;2023-04-08T06:11:15;55.75;;;32.20;;
32214;SDS011;18708;53.124;23.190;2023-04-08T06:13:41;50.38;;;31.30;;
32214;SDS011;18708;53.124;23.190;2023-04-08T06:16:13;59.05;;;35.33;;
32214;SDS011;18708;53.124;23.190;2023-04-08T06:18:41;50.08;;;30.30;;
32214;SDS011;18708;53.124;23.190;2023-04-08T06:21:07;49.97;;;27.17;;
32214;SDS011;18708;53.124;23.190;2023-04-08T06:23:33;58.13;;;36.63;;
32214;SDS011;18708;53.124;23.190;2023-04-08T06:25:58;45.13;;;27.77;;
32214;SDS011;18708;53.124;23.190;2023-04-08T06:28:24;47.03;;;29.00;;
32214;SDS011;18708;53.124;23.190;2023-04-08T06:30:50;43.88;;;27.85;;
32214;SDS011;18708;53.124;23.190;2023-04-08T06:33:15;45.78;;;26.90;;
32214;SDS011;18708;53.124;23.190;2023-04-08T06:35:41;53.85;;;31.15;;
32214;SDS011;18708;53.124;23.190;2023-04-08T06:38:07;50.50;;;30.02;;
32214;SDS011;18708;53.124;23.190;2023-04-08T06:40:32;52.78;;;35.08;;
32214;SDS011;18708;53.124;23.190;2023-04-08T06:42:58;58.58;;;37.45;;
32214;SDS011;18708;53.124;23.190;2023-04-08T06:45:24;58.80;;;36.90;;
32214;SDS011;18708;53.124;23.190;2023-04-08T06:47:50;68.50;;;41.35;;
32214;SDS011;18708;53.124;23.190;2023-04-08T06:50:16;60.83;;;36.45;;
32214;SDS011;18708;53.124;23.190;2023-04-08T06:52:42;55.05;;;34.88;;
32214;SDS011;18708;53.124;23.190;2023-04-08T06:55:07;51.70;;;32.72;;
32214;SDS011;18708;53.124;23.190;2023-04-08T06:57:46;51.67;;;33.25;;
32214;SDS011;18708;53.124;23.190;2023-04-08T07:00:12;56.20;;;34.13;;
32214;SDS011;18708;53.124;23.190;2023-04-08T07:02:38;56.55;;;35.78;;
32214;SDS011;18708;53.124;23.190;2023-04-08T07:05:03;54.20;;;34.45;;
32214;SDS011;18708;53.124;23.190;2023-04-08T07:07:32;54.78;;;35.63;;
32214;SDS011;18708;53.124;23.190;2023-04-08T07:09:58;58.22;;;38.40;;
32214;SDS011;18708;53.124;23.190;2023-04-08T07:12:24;53.42;;;34.75;;
32214;SDS011;18708;53.124;23.190;2023-04-08T07:14:49;55.45;;;37.70;;
32214;SDS011;18708;53.124;23.190;2023-04-08T07:17:17;51.15;;;33.95;;
32214;SDS011;18708;53.124;23.190;2023-04-08T07:19:42;49.75;;;31.83;;
32214;SDS011;18708;53.124;23.190;2023-04-08T07:22:08;42.08;;;29.25;;
32214;SDS011;18708;53.124;23.190;2023-04-08T07:24:34;47.33;;;30.27;;
32214;SDS011;18708;53.124;23.190;2023-04-08T07:27:02;75.95;;;45.55;;
32214;SDS011;18708;53.124;23.190;2023-04-08T07:29:27;57.50;;;35.13;;
32214;SDS011;18708;53.124;23.190;2023-04-08T07:31:53;43.22;;;27.80;;
32214;SDS011;18708;53.124;23.190;2023-04-08T07:34:19;42.15;;;28.40;;
32214;SDS011;18708;53.124;23.190;2023-04-08T07:36:47;44.05;;;28.63;;
32214;SDS011;18708;53.124;23.190;2023-04-08T07:39:12;35.80;;;25.25;;
32214;SDS011;18708;53.124;23.190;2023-04-08T07:41:38;31.38;;;21.90;;
32214;SDS011;18708;53.124;23.190;2023-04-08T07:44:04;30.25;;;21.08;;
32214;SDS011;18708;53.124;23.190;2023-04-08T07:46:30;33.15;;;23.27;;
32214;SDS011;18708;53.124;23.190;2023-04-08T07:48:57;30.70;;;21.90;;
32214;SDS011;18708;53.124;23.190;2023-04-08T07:51:23;27.80;;;17.58;;
32214;SDS011;18708;53.124;23.190;2023-04-08T07:53:49;23.13;;;17.05;;
32214;SDS011;18708;53.124;23.190;2023-04-08T07:56:14;30.17;;;18.92;;
32214;SDS011;18708;53.124;23.190;2023-04-08T07:58:42;19.77;;;14.43;;
32214;SDS011;18708;53.124;23.190;2023-04-08T08:01:14;15.25;;;11.50;;
32214;SDS011;18708;53.124;23.190;2023-04-08T08:03:45;14.98;;;11.25;;
32214;SDS011;18708;53.124;23.190;2023-04-08T08:06:11;14.05;;;11.20;;
32214;SDS011;18708;53.124;23.190;2023-04-08T08:08:37;13.88;;;11.00;;
32214;SDS011;18708;53.124;23.190;2023-04-08T08:11:03;13.63;;;10.52;;
32214;SDS011;18708;53.124;23.190;2023-04-08T08:13:28;9.43;;;8.43;;
32214;SDS011;18708;53.124;23.190;2023-04-08T08:15:54;10.00;;;8.70;;
32214;SDS011;18708;53.124;23.190;2023-04-08T08:18:21;12.30;;;9.10;;
32214;SDS011;18708;53.124;23.190;2023-04-08T08:20:47;8.05;;;7.22;;
32214;SDS011;18708;53.124;23.190;2023-04-08T08:23:12;9.15;;;8.13;;
32214;SDS011;18708;53.124;23.190;2023-04-08T08:25:38;29.88;;;22.15;;
32214;SDS011;18708;53.124;23.190;2023-04-08T08:28:04;36.97;;;20.40;;
32214;SDS011;18708;53.124;23.190;2023-04-08T08:30:31;18.60;;;12.73;;
32214;SDS011;18708;53.124;23.190;2023-04-08T08:32:57;17.95;;;13.45;;
32214;SDS011;18708;53.124;23.190;2023-04-08T08:35:24;8.82;;;7.93;;
32214;SDS011;18708;53.124;23.190;2023-04-08T08:37:50;10.68;;;9.20;;
32214;SDS011;18708;53.124;23.190;2023-04-08T08:40:16;10.10;;;8.30;;
32214;SDS011;18708;53.124;23.190;2023-04-08T08:42:42;11.13;;;7.40;;
32214;SDS011;18708;53.124;23.190;2023-04-08T08:45:15;7.63;;;6.85;;
32214;SDS011;18708;53.124;23.190;2023-04-08T08:47:45;9.40;;;7.43;;
32214;SDS011;18708;53.124;23.190;2023-04-08T08:50:11;7.75;;;7.03;;
32214;SDS011;18708;53.124;23.190;2023-04-08T08:52:36;8.55;;;7.30;;
32214;SDS011;18708;53.124;23.190;2023-04-08T08:55:02;9.10;;;8.13;;
32214;SDS011;18708;53.124;23.190;2023-04-08T08:57:28;9.68;;;7.70;;
32214;SDS011;18708;53.124;23.190;2023-04-08T08:59:54;7.95;;;6.72;;
32214;SDS011;18708;53.124;23.190;2023-04-08T09:02:29;7.47;;;6.53;;
32214;SDS011;18708;53.124;23.190;2023-04-08T09:04:56;10.05;;;7.50;;
32214;SDS011;18708;53.124;23.190;2023-04-08T09:07:29;9.75;;;7.20;;
32214;SDS011;18708;53.124;23.190;2023-04-08T09:09:59;9.10;;;6.57;;
32214;SDS011;18708;53.124;23.190;2023-04-08T09:12:25;8.25;;;6.60;;
32214;SDS011;18708;53.124;23.190;2023-04-08T09:15:07;14.63;;;11.43;;
32214;SDS011;18708;53.124;23.190;2023-04-08T09:17:37;7.75;;;6.35;;
32214;SDS011;18708;53.124;23.190;2023-04-08T09:20:07;8.20;;;6.07;;
32214;SDS011;18708;53.124;23.190;2023-04-08T09:25:27;9.10;;;6.20;;
32214;SDS011;18708;53.124;23.190;2023-04-08T09:27:54;8.95;;;7.65;;
32214;SDS011;18708;53.124;23.190;2023-04-08T09:30:21;19.08;;;12.60;;
32214;SDS011;18708;53.124;23.190;2023-04-08T09:32:49;8.02;;;6.72;;
32214;SDS011;18708;53.124;23.190;2023-04-08T09:35:16;8.07;;;7.13;;
32214;SDS011;18708;53.124;23.190;2023-04-08T09:37:42;9.75;;;7.65;;
32214;SDS011;18708;53.124;23.190;2023-04-08T09:40:08;8.55;;;7.43;;
32214;SDS011;18708;53.124;23.190;2023-04-08T09:42:35;9.30;;;7.68;;
32214;SDS011;18708;53.124;23.190;2023-04-08T09:45:05;8.57;;;7.50;;
32214;SDS011;18708;53.124;23.190;2023-04-08T09:47:37;11.38;;;8.32;;
32214;SDS011;18708;53.124;23.190;2023-04-08T09:50:16;10.27;;;8.40;;
32214;SDS011;18708;53.124;23.190;2023-04-08T09:52:48;13.38;;;8.43;;
32214;SDS011;18708;53.124;23.190;2023-04-08T09:55:21;11.90;;;7.60;;
32214;SDS011;18708;53.124;23.190;2023-04-08T09:57:51;9.38;;;7.38;;
32214;SDS011;18708;53.124;23.190;2023-04-08T10:00:33;14.13;;;10.15;;
32214;SDS011;18708;53.124;23.190;2023-04-08T10:05:36;9.63;;;7.25;;
32214;SDS011;18708;53.124;23.190;2023-04-08T10:08:05;11.48;;;7.68;;
32214;SDS011;18708;53.124;23.190;2023-04-08T10:10:33;10.23;;;7.32;;
32214;SDS011;18708;53.124;23.190;2023-04-08T10:13:00;7.03;;;6.32;;
32214;SDS011;18708;53.124;23.190;2023-04-08T10:15:28;6.07;;;5.32;;
32214;SDS011;18708;53.124;23.190;2023-04-08T10:18:28;6.72;;;5.38;;
32214;SDS011;18708;53.124;23.190;2023-04-08T10:20:45;5.95;;;5.20;;
32214;SDS011;18708;53.124;23.190;2023-04-08T10:23:16;5.93;;;5.30;;
32214;SDS011;18708;53.124;23.190;2023-04-08T10:25:43;7.68;;;5.32;;
32214;SDS011;18708;53.124;23.190;2023-04-08T10:36:15;8.95;;;6.05;;
32214;SDS011;18708;53.124;23.190;2023-04-08T10:38:41;6.13;;;5.53;;
32214;SDS011;18708;53.124;23.190;2023-04-08T10:41:10;7.32;;;5.75;;
32214;SDS011;18708;53.124;23.190;2023-04-08T10:43:45;5.30;;;4.80;;
32214;SDS011;18708;53.124;23.190;2023-04-08T10:46:11;4.50;;;4.10;;
32214;SDS011;18708;53.124;23.190;2023-04-08T10:48:37;5.25;;;4.00;;
32214;SDS011;18708;53.124;23.190;2023-04-08T10:51:03;3.92;;;3.53;;
32214;SDS011;18708;53.124;23.190;2023-04-08T10:53:30;4.30;;;3.65;;
32214;SDS011;18708;53.124;23.190;2023-04-08T10:58:31;4.07;;;3.78;;
32214;SDS011;18708;53.124;23.190;2023-04-08T11:01:06;4.43;;;3.60;;
32214;SDS011;18708;53.124;23.190;2023-04-08T11:03:32;4.65;;;4.10;;
32214;SDS011;18708;53.124;23.190;2023-04-08T11:05:59;4.63;;;4.15;;
32214;SDS011;18708;53.124;23.190;2023-04-08T11:08:32;6.20;;;3.95;;
32214;SDS011;18708;53.124;23.190;2023-04-08T11:11:02;4.80;;;4.30;;
32214;SDS011;18708;53.124;23.190;2023-04-08T11:13:36;4.50;;;4.05;;
32214;SDS011;18708;53.124;23.190;2023-04-08T11:16:03;4.75;;;3.70;;
32214;SDS011;18708;53.124;23.190;2023-04-08T11:18:33;4.97;;;4.07;;
32214;SDS011;18708;53.124;23.190;2023-04-08T11:21:00;4.10;;;3.70;;
32214;SDS011;18708;53.124;23.190;2023-04-08T11:23:26;4.07;;;3.47;;
32214;SDS011;18708;53.124;23.190;2023-04-08T11:25:52;4.57;;;4.18;;
32214;SDS011;18708;53.124;23.190;2023-04-08T11:28:18;4.15;;;3.42;;
32214;SDS011;18708;53.124;23.190;2023-04-08T11:30:44;4.00;;;3.53;;
32214;SDS011;18708;53.124;23.190;2023-04-08T11:33:12;4.72;;;3.45;;
32214;SDS011;18708;53.124;23.190;2023-04-08T11:35:41;3.83;;;2.75;;
32214;SDS011;18708;53.124;23.190;2023-04-08T11:38:08;3.00;;;2.70;;
32214;SDS011;18708;53.124;23.190;2023-04-08T11:40:35;4.78;;;2.53;;
32214;SDS011;18708;53.124;23.190;2023-04-08T11:43:11;3.22;;;2.78;;
32214;SDS011;18708;53.124;23.190;2023-04-08T11:45:39;3.75;;;2.50;;
32214;SDS011;18708;53.124;23.190;2023-04-08T11:48:12;2.95;;;2.30;;
32214;SDS011;18708;53.124;23.190;2023-04-08T11:50:40;6.07;;;2.67;;
32214;SDS011;18708;53.124;23.190;2023-04-08T11:53:17;2.33;;;2.13;;
32214;SDS011;18708;53.124;23.190;2023-04-08T11:55:44;2.80;;;2.50;;
32214;SDS011;18708;53.124;23.190;2023-04-08T11:58:10;2.50;;;2.30;;
32214;SDS011;18708;53.124;23.190;2023-04-08T12:00:36;2.78;;;2.58;;
32214;SDS011;18708;53.124;23.190;2023-04-08T12:03:02;4.88;;;3.45;;
32214;SDS011;18708;53.124;23.190;2023-04-08T12:05:28;4.10;;;2.85;;
32214;SDS011;18708;53.124;23.190;2023-04-08T12:07:54;3.55;;;2.55;;
32214;SDS011;18708;53.124;23.190;2023-04-08T12:10:20;2.67;;;2.47;;
32214;SDS011;18708;53.124;23.190;2023-04-08T12:12:46;3.33;;;2.97;;
32214;SDS011;18708;53.124;23.190;2023-04-08T12:15:12;3.80;;;3.50;;
32214;SDS011;18708;53.124;23.190;2023-04-08T12:17:37;3.40;;;2.95;;
32214;SDS011;18708;53.124;23.190;2023-04-08T12:20:04;3.38;;;3.03;;
32214;SDS011;18708;53.124;23.190;2023-04-08T12:22:30;3.63;;;3.28;;
32214;SDS011;18708;53.124;23.190;2023-04-08T12:24:56;4.15;;;3.28;;
32214;SDS011;18708;53.124;23.190;2023-04-08T12:27:21;3.00;;;2.70;;
32214;SDS011;18708;53.124;23.190;2023-04-08T12:29:47;3.58;;;3.28;;
32214;SDS011;18708;53.124;23.190;2023-04-08T12:32:14;3.38;;;2.78;;
32214;SDS011;18708;53.124;23.190;2023-04-08T12:34:39;3.67;;;2.88;;
32214;SDS011;18708;53.124;23.190;2023-04-08T12:37:05;3.85;;;2.92;;
32214;SDS011;18708;53.124;23.190;2023-04-08T12:39:31;2.95;;;2.75;;
32214;SDS011;18708;53.124;23.190;2023-04-08T12:41:56;4.15;;;3.10;;
32214;SDS011;18708;53.124;23.190;2023-04-08T12:44:23;6.35;;;3.40;;
32214;SDS011;18708;53.124;23.190;2023-04-08T12:46:49;3.78;;;3.42;;
32214;SDS011;18708;53.124;23.190;2023-04-08T12:49:15;3.58;;;3.22;;
32214;SDS011;18708;53.124;23.190;2023-04-08T12:51:41;4.03;;;3.20;;
32214;SDS011;18708;53.124;23.190;2023-04-08T12:54:06;4.80;;;3.38;;
32214;SDS011;18708;53.124;23.190;2023-04-08T12:56:32;3.78;;;3.38;;
32214;SDS011;18708;53.124;23.190;2023-04-08T12:58:58;3.90;;;3.50;;
32214;SDS011;18708;53.124;23.190;2023-04-08T13:01:25;3.85;;;3.10;;
32214;SDS011;18708;53.124;23.190;2023-04-08T13:03:50;3.70;;;3.30;;
32214;SDS011;18708;53.124;23.190;2023-04-08T13:06:16;4.10;;;3.40;;
32214;SDS011;18708;53.124;23.190;2023-04-08T13:08:42;3.63;;;3.10;;
32214;SDS011;18708;53.124;23.190;2023-04-08T13:11:08;3.00;;;2.70;;
32214;SDS011;18708;53.124;23.190;2023-04-08T13:13:34;4.35;;;3.50;;
32214;SDS011;18708;53.124;23.190;2023-04-08T13:16:00;3.75;;;3.45;;
32214;SDS011;18708;53.124;23.190;2023-04-08T13:18:26;4.18;;;3.67;;
32214;SDS011;18708;53.124;23.190;2023-04-08T13:20:52;3.25;;;2.95;;
32214;SDS011;18708;53.124;23.190;2023-04-08T13:23:18;3.40;;;3.10;;
32214;SDS011;18708;53.124;23.190;2023-04-08T13:25:46;3.95;;;3.55;;
32214;SDS011;18708;53.124;23.190;2023-04-08T13:28:12;3.97;;;3.50;;
32214;SDS011;18708;53.124;23.190;2023-04-08T13:30:38;3.92;;;3.53;;
32214;SDS011;18708;53.124;23.190;2023-04-08T13:33:03;4.68;;;3.80;;
32214;SDS011;18708;53.124;23.190;2023-04-08T13:35:29;4.20;;;3.78;;
32214;SDS011;18708;53.124;23.190;2023-04-08T13:37:55;4.00;;;3.65;;
32214;SDS011;18708;53.124;23.190;2023-04-08T13:40:21;4.80;;;3.92;;
32214;SDS011;18708;53.124;23.190;2023-04-08T13:42:46;5.28;;;4.65;;
32214;SDS011;18708;53.124;23.190;2023-04-08T13:45:12;5.88;;;4.50;;
32214;SDS011;18708;53.124;23.190;2023-04-08T13:47:38;4.43;;;4.00;;
32214;SDS011;18708;53.124;23.190;2023-04-08T13:50:05;4.82;;;3.90;;
32214;SDS011;18708;53.124;23.190;2023-04-08T13:52:31;5.10;;;4.60;;
32214;SDS011;18708;53.124;23.190;2023-04-08T13:54:57;5.53;;;4.20;;
32214;SDS011;18708;53.124;23.190;2023-04-08T13:57:23;4.80;;;4.30;;
32214;SDS011;18708;53.124;23.190;2023-04-08T13:59:48;5.40;;;4.90;;
32214;SDS011;18708;53.124;23.190;2023-04-08T14:02:14;5.15;;;4.65;;
32214;SDS011;18708;53.124;23.190;2023-04-08T14:04:40;5.05;;;4.30;;
32214;SDS011;18708;53.124;23.190;2023-04-08T14:07:07;5.25;;;4.75;;
32214;SDS011;18708;53.124;23.190;2023-04-08T14:09:33;5.72;;;5.07;;
32214;SDS011;18708;53.124;23.190;2023-04-08T14:11:59;6.70;;;4.85;;
32214;SDS011;18708;53.124;23.190;2023-04-08T14:14:25;5.68;;;5.18;;
32214;SDS011;18708;53.124;23.190;2023-04-08T14:16:51;5.82;;;4.70;;
32214;SDS011;18708;53.124;23.190;2023-04-08T14:19:16;5.32;;;4.82;;
32214;SDS011;18708;53.124;23.190;2023-04-08T14:21:42;6.55;;;5.53;;
32214;SDS011;18708;53.124;23.190;2023-04-08T14:24:08;5.63;;;5.00;;
32214;SDS011;18708;53.124;23.190;2023-04-08T14:26:34;6.07;;;5.47;;
32214;SDS011;18708;53.124;23.190;2023-04-08T14:29:04;5.65;;;5.13;;
32214;SDS011;18708;53.124;23.190;2023-04-08T14:31:31;6.10;;;5.50;;
32214;SDS011;18708;53.124;23.190;2023-04-08T14:33:57;6.45;;;5.80;;
32214;SDS011;18708;53.124;23.190;2023-04-08T14:36:24;12.20;;;9.60;;
32214;SDS011;18708;53.124;23.190;2023-04-08T14:38:50;10.82;;;8.35;;